Euskara    
Meteorología y climatología de Navarra
Datos de la estación - Meteo Navarra

Estación de Carcastillo (La Oliva) GN

Altitud 343 m.


Datos desde el 14/01/2021 hasta el 15/01/2021 en horario solar
Los datos son PROVISIONALES

Anterior Página 1 de 1 Siguiente Descargar: Formato para Excel 2000 o superior   Formato csv   Formato para OpenOffice Calc
Fecha Temperatura Humedad relativa Radiación global Insolación Precipitación Vel. viento 10 m Vel. viento 10 m Dir. viento 10 m
°C % W/m² s l/m² m/s km/h °
14/01/2021 0:00 5.4 83 0.0 0 0.0 3.0 10.9 284
14/01/2021 0:10 5.2 83 0.0 0 0.0 3.3 12.0 286
14/01/2021 0:20 5.0 83 0.0 0 0.0 3.0 10.7 290
14/01/2021 0:30 4.9 84 0.0 0 0.0 2.8 10.1 293
14/01/2021 0:40 4.7 85 0.0 0 0.0 3.0 10.7 290
14/01/2021 0:50 4.7 85 0.0 0 0.0 2.9 10.4 296
14/01/2021 1:00 4.9 85 0.0 0 0.0 3.3 11.7 299
14/01/2021 1:10 5.0 84 0.0 0 0.0 2.9 10.6 301
14/01/2021 1:20 4.9 84 0.0 0 0.0 3.0 10.7 290
14/01/2021 1:30 4.8 84 0.0 0 0.0 2.9 10.5 294
14/01/2021 1:40 4.8 83 0.0 0 0.0 3.6 13.0 287
14/01/2021 1:50 4.8 83 0.0 0 0.0 3.0 10.7 297
14/01/2021 2:00 4.9 83 0.0 0 0.0 2.9 10.5 293
14/01/2021 2:10 5.0 83 0.0 0 0.0 3.0 10.7 292
14/01/2021 2:20 5.0 83 0.0 0 0.0 2.5 8.8 295
14/01/2021 2:30 5.0 83 0.0 0 0.0 2.6 9.2 291
14/01/2021 2:40 5.1 83 0.0 0 0.0 2.8 10.2 290
14/01/2021 2:50 5.2 82 0.0 0 0.0 3.3 11.9 287
14/01/2021 3:00 5.2 81 0.0 0 0.0 3.3 11.9 286
14/01/2021 3:10 5.1 81 0.0 0 0.0 3.3 11.7 294
14/01/2021 3:20 5.0 82 0.0 0 0.0 3.2 11.4 301
14/01/2021 3:30 5.0 81 0.0 0 0.0 3.5 12.4 293
14/01/2021 3:40 4.9 80 0.0 0 0.0 3.4 12.2 294
14/01/2021 3:50 5.1 81 0.0 0 0.0 3.3 11.8 299
14/01/2021 4:00 5.1 80 0.0 0 0.0 3.6 13.1 293
14/01/2021 4:10 5.1 80 0.0 0 0.0 3.5 12.6 292
14/01/2021 4:20 5.2 80 0.0 0 0.0 3.4 12.2 298
14/01/2021 4:30 5.3 80 0.0 0 0.0 3.0 10.7 296
14/01/2021 4:40 5.4 79 0.0 0 0.0 3.3 12.0 297
14/01/2021 4:50 5.4 80 0.0 0 0.0 3.8 13.6 296
14/01/2021 5:00 5.5 80 0.0 0 0.0 3.1 11.3 291
14/01/2021 5:10 5.4 80 0.0 0 0.0 3.1 11.1 287
14/01/2021 5:20 5.4 79 0.0 0 0.0 3.9 14.1 290
14/01/2021 5:30 5.3 79 0.0 0 0.0 3.7 13.3 293
14/01/2021 5:40 5.2 79 0.0 0 0.0 3.8 13.5 293
14/01/2021 5:50 5.4 79 0.0 0 0.0 4.0 14.3 289
14/01/2021 6:00 5.5 78 0.0 0 0.0 3.6 13.1 291
14/01/2021 6:10 5.6 78 0.0 0 0.0 4.1 14.7 290
14/01/2021 6:20 5.3 78 0.0 0 0.0 3.9 13.9 284
14/01/2021 6:30 4.9 79 0.0 0 0.0 3.7 13.5 284
14/01/2021 6:40 4.9 79 0.0 0 0.0 3.9 14.2 285
14/01/2021 6:50 5.0 79 0.0 0 0.0 4.4 15.8 286
14/01/2021 7:00 5.1 78 0.0 0 0.0 3.7 13.4 287
14/01/2021 7:10 5.0 78 0.0 0 0.0 4.0 14.3 286
14/01/2021 7:20 5.1 79 0.0 0 0.0 3.5 12.4 293
14/01/2021 7:30 5.1 79 0.0 0 0.0 3.4 12.3 291
14/01/2021 7:40 4.9 79 0.0 0 0.0 3.4 12.2 289
14/01/2021 7:50 4.9 80 15.3 70 0.0 3.2 11.7 289
14/01/2021 8:00 5.0 80 40.8 600 0.0 3.5 12.6 289
14/01/2021 8:10 5.0 79 47.1 440 0.0 3.6 12.9 290
14/01/2021 8:20 5.0 79 71.2 592 0.0 4.0 14.4 291
14/01/2021 8:30 5.2 79 100.0 600 0.0 3.4 12.2 292
14/01/2021 8:40 5.5 79 123.7 600 0.0 3.7 13.4 295
14/01/2021 8:50 5.7 78 104.4 416 0.0 3.7 13.5 291
14/01/2021 9:00 5.8 77 154.5 600 0.0 4.1 14.7 289
14/01/2021 9:10 6.0 76 213.2 600 0.0 3.8 13.8 289
14/01/2021 9:20 6.3 76 243.8 600 0.0 3.7 13.4 294
14/01/2021 9:30 6.7 75 281.9 600 0.0 3.9 13.9 295
14/01/2021 9:40 7.0 75 243.9 482 0.0 3.5 12.6 297
14/01/2021 9:50 7.2 75 207.2 266 0.0 4.3 15.4 314
14/01/2021 10:00 8.5 70 246.8 340 0.0 5.0 18.1 328
14/01/2021 10:10 8.7 68 248.5 338 0.0 4.8 17.4 333
14/01/2021 10:20 8.8 68 251.6 426 0.0 5.3 19.2 323
14/01/2021 10:30 9.0 67 413.8 600 0.0 4.8 17.3 337
14/01/2021 10:40 9.3 67 415.7 600 0.0 3.8 13.7 332
14/01/2021 10:50 9.1 67 348.6 432 0.0 4.2 15.2 333
14/01/2021 11:00 9.0 67 332.4 352 0.0 4.7 17.0 336
14/01/2021 11:10 9.1 67 304.6 360 0.0 5.5 19.7 326
14/01/2021 11:20 9.1 67 431.1 544 0.0 6.0 21.6 316
14/01/2021 11:30 9.2 67 486.8 600 0.0 5.8 21.0 313
14/01/2021 11:40 9.4 66 504.0 600 0.0 5.4 19.3 316
14/01/2021 11:50 9.6 65 526.0 600 0.0 5.9 21.2 314
14/01/2021 12:00 9.6 64 525.2 600 0.0 6.0 21.7 312
14/01/2021 12:10 9.7 64 508.2 600 0.0 5.9 21.1 312
14/01/2021 12:20 9.7 63 506.3 600 0.0 5.2 18.6 308
14/01/2021 12:30 9.8 63 506.9 600 0.0 4.5 16.1 309
14/01/2021 12:40 10.0 62 521.5 600 0.0 4.8 17.1 323
14/01/2021 12:50 10.1 61 315.5 310 0.0 4.5 16.0 332
14/01/2021 13:00 9.5 61 197.3 166 0.0 4.3 15.6 333
14/01/2021 13:10 9.7 61 331.1 416 0.0 4.5 16.2 332
14/01/2021 13:20 9.9 60 319.0 386 0.0 5.4 19.5 323
14/01/2021 13:30 9.9 59 390.5 516 0.0 5.3 19.1 333
14/01/2021 13:40 10.3 59 443.2 600 0.0 5.9 21.2 347
14/01/2021 13:50 10.4 59 430.8 600 0.0 5.7 20.5 343
14/01/2021 14:00 10.5 59 406.4 600 0.0 5.8 20.7 330
14/01/2021 14:10 10.4 59 379.6 586 0.0 6.3 22.8 330
14/01/2021 14:20 10.4 58 370.4 600 0.0 6.6 23.8 332
14/01/2021 14:30 10.4 59 356.2 600 0.0 5.1 18.5 332
14/01/2021 14:40 10.2 60 351.2 600 0.0 6.6 23.9 326
14/01/2021 14:50 10.1 61 329.8 570 0.0 6.0 21.5 318
14/01/2021 15:00 10.0 63 318.3 600 0.0 5.2 18.5 320
14/01/2021 15:10 9.9 64 184.7 358 0.0 5.0 18.0 314
14/01/2021 15:20 9.6 65 142.2 278 0.0 4.1 14.7 305
14/01/2021 15:30 9.2 67 61.4 0 0.0 4.7 16.8 313
14/01/2021 15:40 9.0 68 51.4 0 0.0 4.5 16.1 322
14/01/2021 15:50 9.0 68 48.3 0 0.0 4.7 17.0 321
14/01/2021 16:00 9.0 68 100.1 404 0.0 4.6 16.7 330
14/01/2021 16:10 9.0 69 34.8 0 0.0 4.8 17.1 339
14/01/2021 16:20 8.8 70 24.1 0 0.0 4.3 15.3 334
14/01/2021 16:30 8.6 70 23.4 0 0.0 4.6 16.6 334
14/01/2021 16:40 8.8 71 11.7 0 0.0 5.4 19.3 334
14/01/2021 16:50 9.0 70 0.8 0 0.0 5.6 20.1 329
14/01/2021 17:00 9.1 71 0.0 0 0.0 5.1 18.2 315
14/01/2021 17:10 8.8 72 0.0 0 0.0 4.0 14.3 305
14/01/2021 17:20 8.4 73 0.0 0 0.0 2.8 10.1 292
14/01/2021 17:30 8.0 75 0.0 0 0.0 2.4 8.7 291
14/01/2021 17:40 7.8 75 0.0 0 0.0 3.5 12.5 288
14/01/2021 17:50 7.7 75 0.0 0 0.0 3.0 10.7 300
14/01/2021 18:00 7.4 77 0.0 0 0.0 3.0 10.9 302
14/01/2021 18:10 7.1 78 0.0 0 0.0 3.6 13.0 299
14/01/2021 18:20 6.8 79 0.0 0 0.0 3.2 11.6 304
14/01/2021 18:30 6.7 80 0.0 0 0.0 4.6 16.6 310
14/01/2021 18:40 6.7 81 0.0 0 0.0 4.9 17.5 313
14/01/2021 18:50 6.9 81 0.0 0 0.0 5.1 18.3 313
14/01/2021 19:00 6.8 82 0.0 0 0.0 4.2 15.2 311
14/01/2021 19:10 6.7 83 0.0 0 0.0 3.7 13.5 307
14/01/2021 19:20 6.7 84 0.0 0 0.0 3.8 13.5 306
14/01/2021 19:30 6.8 84 0.0 0 0.0 4.7 16.8 314
14/01/2021 19:40 6.9 85 0.0 0 0.0 4.0 14.4 308
14/01/2021 19:50 6.8 85 0.0 0 0.0 5.0 18.1 312
14/01/2021 20:00 7.1 85 0.0 0 0.0 4.9 17.5 313
14/01/2021 20:10 7.2 86 0.0 0 0.0 4.9 17.5 313
14/01/2021 20:20 7.3 85 0.0 0 0.0 4.4 15.9 319
14/01/2021 20:30 7.3 86 0.0 0 0.0 4.3 15.4 316
14/01/2021 20:40 7.2 87 0.0 0 0.0 4.7 16.7 313
14/01/2021 20:50 7.2 87 0.0 0 0.0 4.0 14.5 313
14/01/2021 21:00 7.2 87 0.0 0 0.0 4.4 15.9 315
14/01/2021 21:10 7.4 86 0.0 0 0.0 4.5 16.3 314
14/01/2021 21:20 7.4 86 0.0 0 0.0 4.7 16.7 313
14/01/2021 21:30 7.3 86 0.0 0 0.0 4.7 17.0 313
14/01/2021 21:40 7.3 87 0.0 0 0.0 4.3 15.4 319
14/01/2021 21:50 7.2 88 0.0 0 0.0 4.0 14.4 316
14/01/2021 22:00 7.3 88 0.0 0 0.0 4.1 14.8 318
14/01/2021 22:10 7.2 88 0.0 0 0.0 3.7 13.3 312
14/01/2021 22:20 7.4 87 0.0 0 0.0 4.1 14.9 314
14/01/2021 22:30 7.3 87 0.0 0 0.0 4.5 16.3 312
14/01/2021 22:40 7.2 87 0.0 0 0.0 3.8 13.7 309
14/01/2021 22:50 7.1 87 0.0 0 0.0 3.1 11.3 303
14/01/2021 23:00 7.3 86 0.0 0 0.0 3.5 12.7 297
14/01/2021 23:10 7.3 85 0.0 0 0.0 3.4 12.2 299
14/01/2021 23:20 7.2 85 0.0 0 0.0 3.5 12.5 303
14/01/2021 23:30 7.3 85 0.0 0 0.0 3.5 12.7 302
14/01/2021 23:40 7.4 83 0.0 0 0.0 4.0 14.3 293
14/01/2021 23:50 7.7 80 0.0 0 0.0 3.6 13.0 302
Anterior Página 1 de 1 Siguiente

NOTA: Tipo de datos según el color:
   - Valores diarios o 10 minutos correctos
   - Valores diarios calculados a partir de un número de datos 10 minutos menor que 144 y mayor que 120, o de un número de datos semihorarios menor que 48 y mayor que 40 (caso de las estaciones de INTIA Y Ministerio)
   - Valores diez minutos estimados


Contacto        Enlaces        Aviso legal